createdAt,value
2024-03-15T00:00:14.983Z,77.03
2024-03-15T00:02:46.462Z,76.64
2024-03-15T00:05:17.422Z,77.11
2024-03-15T00:07:47.599Z,76.70
2024-03-15T00:10:18.688Z,76.37
2024-03-15T00:12:47.210Z,76.19
2024-03-15T00:15:20.250Z,76.12
2024-03-15T00:17:48.403Z,75.52
2024-03-15T00:20:16.534Z,76.33
2024-03-15T00:22:52.681Z,77.05
2024-03-15T00:25:23.048Z,76.68
2024-03-15T00:27:51.711Z,76.88
2024-03-15T00:30:21.425Z,76.60
2024-03-15T00:32:50.009Z,80.81
2024-03-15T00:35:17.887Z,77.03
2024-03-15T00:37:48.429Z,75.78
2024-03-15T00:40:18.405Z,76.64
2024-03-15T00:42:47.560Z,76.94
2024-03-15T00:45:18.377Z,77.22
2024-03-15T00:47:46.391Z,76.42
2024-03-15T00:50:14.781Z,75.60
2024-03-15T00:52:42.969Z,75.73
2024-03-15T00:55:13.399Z,75.33
2024-03-15T00:57:44.122Z,75.40
2024-03-15T01:00:14.746Z,76.93
2024-03-15T01:02:43.907Z,75.82
2024-03-15T01:05:12.268Z,75.95
2024-03-15T01:07:43.865Z,76.46
2024-03-15T01:10:13.022Z,78.25
2024-03-15T01:12:41.735Z,78.00
2024-03-15T01:15:10.965Z,77.46
2024-03-15T01:17:39.663Z,77.04
2024-03-15T01:20:09.674Z,78.21
2024-03-15T01:22:40.035Z,77.71
2024-03-15T01:25:09.336Z,77.64
2024-03-15T01:27:38.815Z,77.53
2024-03-15T01:30:11.720Z,78.62
2024-03-15T01:32:40.088Z,78.14
2024-03-15T01:35:08.755Z,77.79
2024-03-15T01:37:38.439Z,77.12
2024-03-15T01:40:12.595Z,78.08
2024-03-15T01:42:42.811Z,77.53
2024-03-15T01:45:11.652Z,77.70
2024-03-15T01:47:40.604Z,77.73
2024-03-15T01:50:09.779Z,76.95
2024-03-15T01:52:43.169Z,77.14
2024-03-15T01:55:11.868Z,77.73
2024-03-15T01:57:41.284Z,76.62
2024-03-15T02:00:14.574Z,76.45
2024-03-15T02:02:43.102Z,77.05
2024-03-15T02:05:14.166Z,77.99
2024-03-15T02:07:42.230Z,77.80
2024-03-15T02:10:22.050Z,78.40
2024-03-15T02:12:50.560Z,78.01
2024-03-15T02:15:20.289Z,77.30
2024-03-15T02:17:49.803Z,77.89
2024-03-15T02:20:23.249Z,78.16
2024-03-15T02:22:54.393Z,78.42
2024-03-15T02:25:22.296Z,79.46
2024-03-15T02:27:52.952Z,82.66
2024-03-15T02:30:21.575Z,81.63
2024-03-15T02:32:51.180Z,80.14
2024-03-15T02:35:27.791Z,78.09
2024-03-15T02:38:01.431Z,79.37
2024-03-15T02:40:30.907Z,79.33
2024-03-15T02:43:01.312Z,80.23
2024-03-15T02:45:31.990Z,80.07
2024-03-15T02:48:02.609Z,80.22
2024-03-15T02:50:31.105Z,79.24
2024-03-15T02:53:01.099Z,79.62
2024-03-15T02:55:29.834Z,78.48
2024-03-15T02:58:00.024Z,77.93
2024-03-15T03:00:32.222Z,78.65
2024-03-15T03:03:01.891Z,79.00
2024-03-15T03:05:32.038Z,81.04
2024-03-15T03:08:03.064Z,80.90
2024-03-15T03:10:31.826Z,82.47
2024-03-15T03:13:02.945Z,81.39
2024-03-15T03:15:31.698Z,80.70
2024-03-15T03:18:02.480Z,80.99
2024-03-15T03:20:37.436Z,80.70
2024-03-15T03:23:09.615Z,80.20
2024-03-15T03:25:39.201Z,79.89
2024-03-15T03:28:09.135Z,79.93
2024-03-15T03:30:37.714Z,79.48
2024-03-15T03:33:07.312Z,79.27
2024-03-15T03:35:37.501Z,80.47
2024-03-15T03:38:07.058Z,81.18
2024-03-15T03:40:37.612Z,80.38
2024-03-15T03:43:06.777Z,79.52
2024-03-15T03:45:42.888Z,78.95
2024-03-15T03:48:14.669Z,79.60
2024-03-15T03:50:45.079Z,79.39
2024-03-15T03:53:13.576Z,79.28
2024-03-15T03:55:46.227Z,80.21
2024-03-15T03:58:15.332Z,78.88
2024-03-15T04:00:43.434Z,78.97
2024-03-15T04:03:12.822Z,80.22
2024-03-15T04:05:41.641Z,79.00
2024-03-15T04:08:12.358Z,78.79
2024-03-15T04:10:45.268Z,78.92
2024-03-15T04:13:18.630Z,80.24
2024-03-15T04:15:49.603Z,79.60
2024-03-15T04:18:18.897Z,81.41
2024-03-15T04:20:47.785Z,79.46
2024-03-15T04:23:16.800Z,80.15
2024-03-15T04:25:44.967Z,80.11
2024-03-15T04:28:16.379Z,79.64
2024-03-15T04:30:44.505Z,79.30
2024-03-15T04:33:13.137Z,80.08
2024-03-15T04:35:41.476Z,78.54
2024-03-15T04:38:11.129Z,80.03
2024-03-15T04:40:40.371Z,79.82
2024-03-15T04:43:08.574Z,80.88
2024-03-15T04:45:36.846Z,81.44
2024-03-15T04:48:07.393Z,80.40
2024-03-15T04:50:37.487Z,82.95
2024-03-15T04:53:08.154Z,83.37
2024-03-15T04:55:43.141Z,84.17
2024-03-15T04:58:13.220Z,83.48
2024-03-15T05:00:43.946Z,84.50
2024-03-15T05:03:13.502Z,82.34
2024-03-15T05:05:41.753Z,82.30
2024-03-15T05:08:10.059Z,83.63
2024-03-15T05:10:39.383Z,83.69
2024-03-15T05:13:08.113Z,82.57
2024-03-15T05:15:39.916Z,81.27
2024-03-15T05:18:10.197Z,80.06
2024-03-15T05:20:40.363Z,79.92
2024-03-15T05:23:12.276Z,79.58
2024-03-15T05:25:42.763Z,81.01
2024-03-15T05:28:11.143Z,80.85
2024-03-15T05:30:39.980Z,80.74
2024-03-15T05:33:10.873Z,79.64
2024-03-15T05:35:38.966Z,80.92
2024-03-15T05:38:07.089Z,80.78
2024-03-15T05:40:36.231Z,82.30
2024-03-15T05:43:06.218Z,81.90
2024-03-15T05:45:44.160Z,81.32
2024-03-15T05:48:15.992Z,80.27
2024-03-15T05:50:45.973Z,81.68
2024-03-15T05:53:13.998Z,81.47
2024-03-15T05:55:44.678Z,82.85
2024-03-15T05:58:14.753Z,83.51
2024-03-15T06:00:44.375Z,83.21
2024-03-15T06:03:12.891Z,81.86
2024-03-15T06:05:41.097Z,82.77
2024-03-15T06:08:12.036Z,82.39
2024-03-15T06:10:41.018Z,81.25
2024-03-15T06:13:10.569Z,81.24
2024-03-15T06:15:40.154Z,80.46
2024-03-15T06:18:09.280Z,81.10
2024-03-15T06:20:41.377Z,82.09
2024-03-15T06:23:14.264Z,82.16
2024-03-15T06:25:45.648Z,81.48
2024-03-15T06:28:18.811Z,80.58
2024-03-15T06:30:48.389Z,79.96
2024-03-15T06:33:17.676Z,79.44
2024-03-15T06:35:48.213Z,79.33
2024-03-15T06:38:28.933Z,79.21
2024-03-15T06:41:16.334Z,78.90
2024-03-15T06:43:47.703Z,79.57
2024-03-15T06:46:25.848Z,78.66
2024-03-15T06:49:03.731Z,75.85
2024-03-15T06:51:49.276Z,76.45
2024-03-15T06:54:20.638Z,77.67
2024-03-15T06:56:52.715Z,75.18
2024-03-15T06:59:21.906Z,76.83
2024-03-15T07:01:50.548Z,77.38
2024-03-15T07:04:25.538Z,75.84
2024-03-15T07:06:57.848Z,75.43
2024-03-15T07:09:26.787Z,73.82
2024-03-15T07:11:59.289Z,72.45
2024-03-15T07:14:27.966Z,72.44
2024-03-15T07:17:02.145Z,72.76
2024-03-15T07:19:33.584Z,71.92
2024-03-15T07:22:05.602Z,73.01
2024-03-15T07:24:37.216Z,72.86
2024-03-15T07:27:06.630Z,72.13
2024-03-15T07:29:34.524Z,72.70
2024-03-15T07:32:05.136Z,71.44
2024-03-15T07:34:35.436Z,72.62
2024-03-15T07:37:05.790Z,71.47
2024-03-15T07:39:34.099Z,73.46
2024-03-15T07:42:02.559Z,73.81
2024-03-15T07:44:31.191Z,73.69
2024-03-15T07:46:59.115Z,75.19
2024-03-15T07:49:30.984Z,74.51
2024-03-15T07:52:06.077Z,73.82
2024-03-15T07:54:36.073Z,73.34
2024-03-15T07:57:04.537Z,71.76
2024-03-15T07:59:34.666Z,72.75
2024-03-15T08:02:05.101Z,72.58
2024-03-15T08:04:38.815Z,71.79
2024-03-15T08:07:11.040Z,71.85
2024-03-15T08:09:41.491Z,71.11
2024-03-15T08:12:13.077Z,70.04
2024-03-15T08:14:41.517Z,70.14
2024-03-15T08:17:10.115Z,69.56
2024-03-15T08:19:40.860Z,69.88
2024-03-15T08:22:16.598Z,69.64
2024-03-15T08:24:46.273Z,70.58
2024-03-15T08:27:15.948Z,69.26
2024-03-15T08:29:43.975Z,68.66
2024-03-15T08:32:12.913Z,68.87
2024-03-15T08:34:40.984Z,68.32
2024-03-15T08:37:10.596Z,69.39
2024-03-15T08:39:39.924Z,66.80
2024-03-15T08:42:08.785Z,69.49
2024-03-15T08:44:37.779Z,68.92
2024-03-15T08:47:08.325Z,68.42
2024-03-15T08:49:38.562Z,68.15
2024-03-15T08:52:07.016Z,69.74
2024-03-15T08:54:37.433Z,68.74
2024-03-15T08:57:07.715Z,69.46
2024-03-15T08:59:36.141Z,68.54
2024-03-15T09:02:14.643Z,67.13
2024-03-15T09:04:45.055Z,66.75
2024-03-15T09:07:15.920Z,66.16
2024-03-15T09:09:46.054Z,66.69
2024-03-15T09:12:16.003Z,65.71
2024-03-15T09:14:47.768Z,65.88
2024-03-15T09:17:16.169Z,65.95
2024-03-15T09:19:49.143Z,66.39
2024-03-15T09:22:17.771Z,65.72
2024-03-15T09:24:48.753Z,66.29
2024-03-15T09:27:18.111Z,68.59
2024-03-15T09:29:52.277Z,67.33
2024-03-15T09:32:25.670Z,65.85
2024-03-15T09:34:58.343Z,63.91
2024-03-15T09:37:39.698Z,66.91
2024-03-15T09:40:10.557Z,66.76
2024-03-15T09:42:42.893Z,66.06
2024-03-15T09:45:13.607Z,64.53
2024-03-15T09:47:43.970Z,63.44
2024-03-15T09:50:18.287Z,67.20
2024-03-15T09:52:48.216Z,65.67
2024-03-15T09:55:20.742Z,64.08
2024-03-15T09:58:03.920Z,63.83
2024-03-15T10:00:32.259Z,66.09
2024-03-15T10:03:04.552Z,64.86
2024-03-15T10:05:36.495Z,63.45
2024-03-15T10:08:07.940Z,65.18
2024-03-15T10:10:39.817Z,65.32
2024-03-15T10:13:09.339Z,66.86
2024-03-15T10:15:38.459Z,64.82
2024-03-15T10:18:14.271Z,66.05
2024-03-15T10:20:48.989Z,67.00
2024-03-15T10:23:17.093Z,66.45
2024-03-15T10:25:48.019Z,68.66
2024-03-15T10:28:21.491Z,70.94
2024-03-15T10:30:53.270Z,73.82
2024-03-15T10:33:21.535Z,76.30
2024-03-15T10:35:49.876Z,76.86
2024-03-15T10:38:24.019Z,76.81
2024-03-15T10:40:54.161Z,77.66
2024-03-15T10:43:24.926Z,79.76
2024-03-15T10:45:54.251Z,77.15
2024-03-15T10:48:24.344Z,80.25
2024-03-15T10:50:54.532Z,80.98
2024-03-15T10:53:29.085Z,80.75
2024-03-15T10:55:59.647Z,83.02
2024-03-15T10:58:28.915Z,81.97
2024-03-15T11:01:01.532Z,82.87
2024-03-15T11:03:33.229Z,81.97
2024-03-15T11:06:04.894Z,81.22
2024-03-15T11:08:35.672Z,81.50
2024-03-15T11:11:05.790Z,81.86
2024-03-15T11:13:37.915Z,79.30
2024-03-15T11:16:25.247Z,78.55
2024-03-15T11:18:56.025Z,78.46
2024-03-15T11:21:26.411Z,76.90
2024-03-15T11:23:55.545Z,78.53
2024-03-15T11:26:26.110Z,78.76
2024-03-15T11:29:00.253Z,79.34
2024-03-15T11:31:35.344Z,77.44
2024-03-15T11:34:04.733Z,77.02
2024-03-15T11:36:35.958Z,74.30
2024-03-15T11:39:11.807Z,76.15
2024-03-15T11:41:40.505Z,76.52
2024-03-15T11:44:08.996Z,74.48
2024-03-15T11:46:42.658Z,75.20
2024-03-15T11:49:12.933Z,76.63
2024-03-15T11:51:57.167Z,75.17
2024-03-15T11:54:26.546Z,73.73
2024-03-15T11:57:00.378Z,77.70
2024-03-15T11:59:28.405Z,79.16
2024-03-15T12:01:58.152Z,79.91
2024-03-15T12:04:29.655Z,78.38
2024-03-15T12:06:57.825Z,80.40
2024-03-15T12:09:26.536Z,79.73
2024-03-15T12:11:58.235Z,77.71
2024-03-15T12:14:26.788Z,79.55
2024-03-15T12:16:58.662Z,79.37
2024-03-15T12:19:27.009Z,79.05
2024-03-15T12:21:55.306Z,77.66
2024-03-15T12:24:24.735Z,79.86
2024-03-15T12:26:58.139Z,79.32
2024-03-15T12:29:26.037Z,78.83
2024-03-15T12:31:56.021Z,78.67
2024-03-15T12:34:25.678Z,77.35
2024-03-15T12:36:55.084Z,77.05
2024-03-15T12:39:26.507Z,75.22
2024-03-15T12:41:56.971Z,74.07
2024-03-15T12:44:25.388Z,72.22
2024-03-15T12:46:54.168Z,71.79
2024-03-15T12:49:28.862Z,71.23
2024-03-15T12:51:57.611Z,68.65
2024-03-15T12:54:26.020Z,68.92
2024-03-15T12:56:57.337Z,69.67
2024-03-15T12:59:25.855Z,69.43
2024-03-15T13:01:54.070Z,68.28
2024-03-15T13:04:23.463Z,68.04
2024-03-15T13:06:53.194Z,71.22
2024-03-15T13:09:21.904Z,71.87
2024-03-15T13:11:55.377Z,71.30
2024-03-15T13:14:23.690Z,70.77
2024-03-15T13:16:53.345Z,70.34
2024-03-15T13:19:22.155Z,72.21
2024-03-15T13:21:54.470Z,70.78
2024-03-15T13:24:24.457Z,70.55
2024-03-15T13:26:55.483Z,68.98
2024-03-15T13:29:26.153Z,68.43
2024-03-15T13:31:59.904Z,69.79
2024-03-15T13:34:28.475Z,68.85
2024-03-15T13:37:07.461Z,67.64
2024-03-15T13:39:37.968Z,67.34
2024-03-15T13:42:07.950Z,69.09
2024-03-15T13:44:38.613Z,70.18
2024-03-15T13:47:09.574Z,67.84
2024-03-15T13:49:40.682Z,68.41
2024-03-15T13:52:13.190Z,66.69
2024-03-15T13:54:42.783Z,65.80
2024-03-15T13:57:13.746Z,64.74
2024-03-15T13:59:42.927Z,63.54
2024-03-15T14:02:14.295Z,62.59
2024-03-15T14:04:45.505Z,62.51
2024-03-15T14:07:19.172Z,63.98
2024-03-15T14:09:54.164Z,64.45
2024-03-15T14:12:24.429Z,64.43
2024-03-15T14:14:54.740Z,64.04
2024-03-15T14:17:22.976Z,64.04
2024-03-15T14:19:57.081Z,63.83
2024-03-15T14:22:28.679Z,64.26
2024-03-15T14:24:59.417Z,62.60
2024-03-15T14:27:36.020Z,63.16
2024-03-15T14:30:04.641Z,63.84
2024-03-15T14:32:38.427Z,64.04
2024-03-15T14:35:09.130Z,62.67
2024-03-15T14:37:42.043Z,63.46
2024-03-15T14:40:19.068Z,62.58
2024-03-15T14:42:51.054Z,61.63
2024-03-15T14:45:20.431Z,61.64
2024-03-15T14:47:51.610Z,60.59
2024-03-15T14:50:34.866Z,60.48
2024-03-15T14:53:17.354Z,60.42
2024-03-15T14:55:51.792Z,58.08
2024-03-15T14:58:22.167Z,56.94
2024-03-15T15:00:51.559Z,59.34
2024-03-15T15:03:23.406Z,59.38
2024-03-15T15:05:55.011Z,57.74
2024-03-15T15:08:30.112Z,58.47
2024-03-15T15:11:01.051Z,58.48
2024-03-15T15:13:29.647Z,56.51
2024-03-15T15:16:00.521Z,55.18
2024-03-15T15:18:37.003Z,55.57
2024-03-15T15:21:05.291Z,55.73
2024-03-15T15:23:38.005Z,56.54
2024-03-15T15:26:10.125Z,55.46
2024-03-15T15:28:38.095Z,57.19
2024-03-15T15:31:08.050Z,58.25
2024-03-15T15:33:46.208Z,56.02
2024-03-15T15:36:14.965Z,55.97
2024-03-15T15:38:48.153Z,57.97
2024-03-15T15:41:16.174Z,57.82
2024-03-15T15:43:46.056Z,55.54
2024-03-15T15:46:15.517Z,56.52
2024-03-15T15:48:46.082Z,56.06
2024-03-15T15:51:15.885Z,55.54
2024-03-15T15:53:44.790Z,55.52
2024-03-15T15:56:17.518Z,57.39
2024-03-15T15:58:53.174Z,56.05
2024-03-15T16:01:21.600Z,59.76
2024-03-15T16:03:52.257Z,58.99
2024-03-15T16:06:30.962Z,60.56
2024-03-15T16:09:04.254Z,60.06
2024-03-15T16:11:34.070Z,60.40
2024-03-15T16:14:02.486Z,59.99
2024-03-15T16:16:35.616Z,61.16
2024-03-15T16:19:04.349Z,59.15
2024-03-15T16:21:35.035Z,59.80
2024-03-15T16:24:03.383Z,61.34
2024-03-15T16:26:31.614Z,59.89
2024-03-15T16:29:13.526Z,61.46
2024-03-15T16:31:42.673Z,60.80
2024-03-15T16:34:11.948Z,61.48
2024-03-15T16:36:44.235Z,60.64
2024-03-15T16:39:20.104Z,60.12
2024-03-15T16:41:50.864Z,60.06
2024-03-15T16:44:20.470Z,60.59
2024-03-15T16:46:48.926Z,61.25
2024-03-15T16:49:20.886Z,60.82
2024-03-15T16:51:55.745Z,61.68
2024-03-15T16:54:25.224Z,60.69
2024-03-15T16:56:53.248Z,60.48
2024-03-15T16:59:23.978Z,61.50
2024-03-15T17:01:52.059Z,62.82
2024-03-15T17:04:24.834Z,61.69
2024-03-15T17:06:57.288Z,62.58
2024-03-15T17:09:28.307Z,60.95
2024-03-15T17:11:58.969Z,61.25
2024-03-15T17:14:37.087Z,61.66
2024-03-15T17:17:12.336Z,63.22
2024-03-15T17:19:42.547Z,62.61
2024-03-15T17:22:13.823Z,62.25
2024-03-15T17:24:44.733Z,62.91
2024-03-15T17:27:12.892Z,61.30
2024-03-15T17:29:41.913Z,63.24
2024-03-15T17:32:13.134Z,62.94
2024-03-15T17:34:46.409Z,63.06
2024-03-15T17:37:17.931Z,62.24
2024-03-15T17:39:50.366Z,62.57
2024-03-15T17:42:21.286Z,63.72
2024-03-15T17:44:50.114Z,63.63
2024-03-15T17:47:20.062Z,63.14
2024-03-15T17:49:48.068Z,63.29
2024-03-15T17:52:21.075Z,63.81
2024-03-15T17:54:52.020Z,63.73
2024-03-15T17:57:21.438Z,63.55
2024-03-15T17:59:53.362Z,64.66
2024-03-15T18:02:26.230Z,62.85
2024-03-15T18:04:54.765Z,63.38
2024-03-15T18:07:28.227Z,63.26
2024-03-15T18:09:56.593Z,63.92
2024-03-15T18:12:25.110Z,62.36
2024-03-15T18:14:54.191Z,62.17
2024-03-15T18:17:22.548Z,64.75
2024-03-15T18:19:51.095Z,64.81
2024-03-15T18:22:20.680Z,64.54
2024-03-15T18:24:50.219Z,65.50
2024-03-15T18:27:21.230Z,66.59
2024-03-15T18:29:49.260Z,64.93
2024-03-15T18:32:23.943Z,66.30
2024-03-15T18:34:52.913Z,66.31
2024-03-15T18:37:22.341Z,66.84
2024-03-15T18:40:00.762Z,66.79
2024-03-15T18:42:28.890Z,67.30
2024-03-15T18:44:58.671Z,67.74
2024-03-15T18:47:31.834Z,67.01
2024-03-15T18:50:02.910Z,67.46
2024-03-15T18:52:31.795Z,66.89
2024-03-15T18:55:01.358Z,67.27
2024-03-15T18:57:29.846Z,66.91
2024-03-15T19:00:11.837Z,66.81
2024-03-15T19:02:43.235Z,68.19
2024-03-15T19:05:13.014Z,68.35
2024-03-15T19:07:44.670Z,67.35
2024-03-15T19:10:13.472Z,66.24
2024-03-15T19:12:41.613Z,67.82
2024-03-15T19:15:10.837Z,67.90
2024-03-15T19:17:39.348Z,69.14
2024-03-15T19:20:09.943Z,68.06
2024-03-15T19:22:41.263Z,68.59
2024-03-15T19:25:13.473Z,67.19
2024-03-15T19:27:41.913Z,67.63
2024-03-15T19:30:12.720Z,69.52
2024-03-15T19:32:41.169Z,68.54
2024-03-15T19:35:15.302Z,67.75
2024-03-15T19:37:44.287Z,68.32
2024-03-15T19:40:15.102Z,68.78
2024-03-15T19:42:45.148Z,67.96
2024-03-15T19:45:17.655Z,68.75
2024-03-15T19:47:49.650Z,69.50
2024-03-15T19:50:18.107Z,68.20
2024-03-15T19:52:47.092Z,69.75
2024-03-15T19:55:16.353Z,71.36
2024-03-15T19:57:45.684Z,69.89
2024-03-15T20:00:18.361Z,70.45
2024-03-15T20:02:49.413Z,70.70
2024-03-15T20:05:19.242Z,71.61
2024-03-15T20:07:53.811Z,72.23
2024-03-15T20:10:22.046Z,71.28
2024-03-15T20:12:53.591Z,71.15
2024-03-15T20:15:31.134Z,70.82
2024-03-15T20:18:07.543Z,72.16
2024-03-15T20:20:36.063Z,70.57
2024-03-15T20:23:04.442Z,72.21
2024-03-15T20:25:35.822Z,70.87
2024-03-15T20:28:07.265Z,73.11
2024-03-15T20:30:38.449Z,72.96
2024-03-15T20:33:07.848Z,72.71
2024-03-15T20:35:40.325Z,72.92
2024-03-15T20:38:15.341Z,71.07
2024-03-15T20:40:43.659Z,72.88
2024-03-15T20:43:17.199Z,71.85
2024-03-15T20:45:52.511Z,71.90
2024-03-15T20:48:21.845Z,72.76
2024-03-15T20:51:01.099Z,72.30
2024-03-15T20:53:30.277Z,72.11
2024-03-15T20:56:00.447Z,70.77
2024-03-15T20:58:36.257Z,72.50
2024-03-15T21:01:08.260Z,71.32
2024-03-15T21:03:36.839Z,72.49
2024-03-15T21:06:08.642Z,71.59
2024-03-15T21:08:44.773Z,71.43
2024-03-15T21:11:15.099Z,68.39
2024-03-15T21:13:48.054Z,70.27
2024-03-15T21:16:26.690Z,71.36
2024-03-15T21:18:55.738Z,70.85
2024-03-15T21:21:31.309Z,70.74
2024-03-15T21:24:02.218Z,70.97
2024-03-15T21:26:32.577Z,69.20
2024-03-15T21:29:01.705Z,70.72
2024-03-15T21:31:29.830Z,70.42
2024-03-15T21:34:00.892Z,69.87
2024-03-15T21:36:33.015Z,70.81
2024-03-15T21:39:02.806Z,71.57
2024-03-15T21:41:39.518Z,70.82
2024-03-15T21:44:09.926Z,71.03
2024-03-15T21:46:39.183Z,70.67
2024-03-15T21:49:08.988Z,70.63
2024-03-15T21:51:38.166Z,69.86
2024-03-15T21:54:09.006Z,69.76
2024-03-15T21:56:38.206Z,69.00
2024-03-15T21:59:07.954Z,69.80
2024-03-15T22:01:40.885Z,68.88
2024-03-15T22:04:20.026Z,69.14
2024-03-15T22:06:51.178Z,69.51
2024-03-15T22:09:22.320Z,68.47
2024-03-15T22:11:52.575Z,68.90
2024-03-15T22:14:21.660Z,70.17
2024-03-15T22:16:53.507Z,70.40
2024-03-15T22:19:21.989Z,69.04
2024-03-15T22:21:50.599Z,70.23
2024-03-15T22:24:20.447Z,68.98
2024-03-15T22:26:48.933Z,69.19
2024-03-15T22:29:23.474Z,68.54
2024-03-15T22:32:00.424Z,67.63
2024-03-15T22:34:33.541Z,68.20
2024-03-15T22:37:02.676Z,70.42
2024-03-15T22:39:34.045Z,70.90
2024-03-15T22:42:06.229Z,71.41
2024-03-15T22:44:36.226Z,72.32
2024-03-15T22:47:50.464Z,70.57
2024-03-15T22:50:22.352Z,72.61
2024-03-15T22:52:57.797Z,72.09
2024-03-15T22:55:28.177Z,70.98
2024-03-15T22:57:58.252Z,72.68
2024-03-15T23:00:32.126Z,71.72
2024-03-15T23:03:03.597Z,75.11
2024-03-15T23:05:31.634Z,78.10
2024-03-15T23:08:00.283Z,78.04
2024-03-15T23:10:28.290Z,77.56
2024-03-15T23:12:58.842Z,75.81
2024-03-15T23:15:28.321Z,77.61
2024-03-15T23:18:00.420Z,78.12
2024-03-15T23:20:30.421Z,80.28
2024-03-15T23:35:36.859Z,79.98
2024-03-15T23:38:09.172Z,78.73
2024-03-15T23:40:39.047Z,78.83
2024-03-15T23:43:11.752Z,79.27
2024-03-15T23:45:39.999Z,79.80
2024-03-15T23:48:23.237Z,78.61
2024-03-15T23:50:52.185Z,78.26
2024-03-15T23:53:22.491Z,79.54
2024-03-15T23:55:53.945Z,78.96
2024-03-15T23:58:22.316Z,78.14
